Airfield :
LOGIN :

Register | Disclaimer

   EN    FR    IT 

 










Legend :    VFR   Marginal VFR   IFR   Intensive IFR   Very Intensive IFR
Visi :
Ceiling :
>= 8 km
>= 3000ft
5 to 8 km
1000 to 3000 ft
1500m to 5 km
500 to 1000 ft
800 to 1500m
200 to 500 ft
< 800m
< 200 ft
Symbols :   Thunderstorms  Fog  Heavy snow  Heavy precipitations  Wind > 20 kt
SIGMETs :     Misc.  Thunderstorms  Icing  Turbulence  Mountain Waves  Volcanic Ashes






- Airport Elevation : 1400 ft


LSME - Luzern Emmen

CURRENT METAR :
  • 021520Z 26005KT 210V300 9999 BKN050 OVC058 08/00 Q1031 RMK BLU

EXPIRED METARs :
  • 021450Z 26006KT 230V300 9999 BKN047 OVC060 08/M00 Q1030 RMK BLU
  • 021420Z 26006KT 210V300 9999 OVC048 08/M00 Q1030 RMK BLU
  • 021350Z 24009KT 210V300 9999 BKN045 08/M01 Q1030 RMK BLU
  • 021320Z 25008KT 210V280 9999 SCT042 BKN065 08/M00 Q1030 RMK BLU
  • 021250Z 25013KT 9999 FEW041 BKN065 08/M01 Q1030 RMK BLU

Expired Forecast.



MET'MAP, your aeronautical weather chart ! - Copyright ORBIFLY December 2007 - Disclaimer

ORBIFLY MET'MAP TEAM :

Programming & Development : Alexandra Zaïnal
Original concept : Baudouin d'Aumeries
Technical & hardware support : Manuel Goepfert
Assistance : Marc-Olivier Méhu




SOURCES & CREDITS :

   NOAA